ADDS METAR Data INFO
IDs: Format: Raw Decoded Include TAF

Data at: 1154 UTC 21 Jun 2018

KHSD 211135Z AUTO 34008KT 10SM CLR 21/15 A2999 RMK A01
KHSD 211115Z AUTO 34007KT 10SM CLR 21/16 A2998 RMK A01
KHSD 211055Z AUTO 35006KT 10SM CLR 21/16 A2997 RMK A01
KHSD 211035Z AUTO 36007KT 10SM CLR 22/17 A2996 RMK A01
KHSD 211015Z AUTO 35006KT 10SM CLR 22/17 A2995 RMK A01
KHSD 210955Z AUTO 34008KT 10SM CLR 23/18 A2994 RMK A01
KHSD 210935Z AUTO 31007G16KT 10SM CLR 22/18 A2993 RMK A01
KHSD 210915Z AUTO 25005KT 10SM CLR 22/18 A2991 RMK A01
KHSD 210855Z AUTO 24005KT 10SM CLR 22/18 A2991 RMK A01
KHSD 210835Z AUTO 23006KT 10SM CLR 22/18 A2990 RMK A01
KHSD 210815Z AUTO 24005KT 10SM CLR 22/18 A2991 RMK A01
KHSD 210755Z AUTO 23005KT 10SM CLR 22/18 A2990 RMK A01
KHSD 210735Z AUTO 23005KT 10SM CLR 22/18 A2991 RMK A01
KHSD 210715Z AUTO 22006KT 10SM CLR 22/18 A2991 RMK A01
KHSD 210655Z AUTO 22006KT 10SM CLR 23/19 A2991 RMK A01
KHSD 210635Z AUTO 21007KT 10SM CLR 23/19 A2992 RMK A01
KHSD 210615Z AUTO 22006KT 10SM CLR 22/18 A2992 RMK A01
KHSD 210555Z AUTO 21005KT 10SM CLR 22/18 A2992 RMK A01
KHSD 210535Z AUTO 20006KT 10SM CLR 23/18 A2992 RMK A01
KHSD 210515Z AUTO 20007KT 10SM CLR 23/18 A2992 RMK A01
KHSD 210455Z AUTO 19007KT 10SM CLR 24/19 A2992 RMK A01
KHSD 210435Z AUTO 18006KT 10SM CLR 24/19 A2992 RMK A01
KHSD 210415Z AUTO 18006KT 10SM CLR 24/18 A2992 RMK A01
KHSD 210355Z AUTO 17004KT 10SM CLR 25/18 A2992 RMK A01
KHSD 210335Z AUTO 16004KT 10SM CLR 25/18 A2991 RMK A01
KHSD 210315Z AUTO 14003KT 10SM CLR 26/18 A2991 RMK A01
KHSD 210255Z AUTO 00000KT 10SM CLR 25/18 A2991 RMK A01
KHSD 210235Z AUTO 00000KT 10SM SCT065 27/18 A2990 RMK A01
KHSD 210215Z AUTO 00000KT 10SM FEW065 28/17 A2990 RMK A01
KHSD 210155Z AUTO 03004KT 10SM CLR 28/17 A2989 RMK A01
KHSD 210135Z AUTO 03005KT 10SM CLR 28/18 A2988 RMK A01
KHSD 210115Z AUTO 03005KT 10SM CLR 29/18 A2988 RMK A01
KHSD 210055Z AUTO 03004KT 10SM FEW060 30/17 A2987 RMK A01
KHSD 210035Z AUTO 34007G13KT 10SM SCT060 30/17 A2986 RMK A01
KHSD 210015Z AUTO 01008KT 10SM SCT060 30/17 A2986 RMK A01
KHSD 202355Z AUTO 01005G11KT 10SM SCT060 30/17 A2985 RMK A01
KHSD 202335Z AUTO 34007KT 10SM BKN060 30/17 A2985 RMK A01
KHSD 202315Z AUTO 36008KT 10SM BKN060 31/17 A2985 RMK A01
KHSD 202255Z AUTO 36011KT 10SM BKN060 31/18 A2985 RMK A01
KHSD 202235Z AUTO 34007G14KT 10SM BKN060 30/17 A2985 RMK A01
KHSD 202215Z AUTO 01010KT 10SM BKN060 30/17 A2986 RMK A01
KHSD 202155Z AUTO 32008G15KT 10SM SCT060 BKN070 31/17 A2986 RMK A01
KHSD 202135Z AUTO 34010KT 10SM SCT055 31/17 A2986 RMK A01
KHSD 202115Z AUTO 30011KT 10SM FEW055 32/17 A2987 RMK A01
KHSD 202055Z AUTO 33012KT 10SM SCT050 31/17 A2987 RMK A01
KHSD 202035Z AUTO 36008G14KT 10SM SCT050 29/17 A2988 RMK A01
KHSD 202015Z AUTO 34008G18KT 320V030 10SM FEW050 30/17 A2988 RMK A01
KHSD 201955Z AUTO 02009G15KT 10SM FEW050 30/17 A2989 RMK A01
KHSD 201935Z AUTO 34008G15KT 310V010 10SM CLR 31/17 A2989 RMK A01
KHSD 201915Z AUTO 35009G16KT 10SM CLR 30/16 A2989 RMK A01
KHSD 201855Z AUTO 01007G16KT 330V030 10SM CLR 30/16 A2990 RMK A01
KHSD 201835Z AUTO 34010G17KT 10SM FEW050 FEW055 30/16 A2991 RMK A01
KHSD 201815Z AUTO 36011KT 10SM SCT050 SCT055 29/16 A2991 RMK A01
KHSD 201755Z AUTO 02003KT 10SM CLR 29/18 A2991 RMK A01
KHSD 201735Z AUTO 00000KT 10SM CLR 27/18 A2991 RMK A01
KHSD 201715Z AUTO 00000KT 10SM CLR 27/18 A2991 RMK A01
KHSD 201655Z AUTO 14004KT 10SM CLR 27/18 A2989 RMK A01
KHSD 201635Z AUTO 17007KT 10SM CLR 26/19 A2989 RMK A01
KHSD 201615Z AUTO 170KT 10SM CLR 26/19 A2988 RMK A01
KHSD 201555Z AUTO 15010KT 10SM CLR 26/18 A2986 RMK A01
KHSD 201535Z AUTO 16007KT 10SM CLR 26/18 A2989 RMK A01
KHSD 201515Z AUTO 08004KT 10SM CLR 26/18 A2990 RMK A01
KHSD 201455Z AUTO 06003KT 10SM CLR 25/17 A2992 RMK A01
KHSD 201435Z AUTO VRB04KT 10SM CLR 25/19 A2994 RMK A01
KHSD 201415Z AUTO 00000KT 10SM FEW110 24/19 A2994 RMK A01
KHSD 201355Z AUTO VRB04KT 10SM CLR 23/19 A2995 RMK A01
KHSD 201335Z AUTO 34004KT 10SM SCT065 22/19 A2996 RMK A01
KHSD 201315Z AUTO 32007G14KT 10SM SCT055 OVC065 21/19 A2996 RMK A01
KHSD 201255Z AUTO 34007KT 10SM FEW043 OVC050 21/19 A2995 RMK A01
KHSD 201235Z AUTO 34006KT 10SM FEW033 BKN041 OVC050 21/20 A2995 RMK A01
KHSD 201215Z AUTO 32004KT 10SM SCT023 BKN030 OVC035 21/19 A2995 RMK A01
KHSD 201155Z AUTO 32008G17KT 5SM BR OVC021 21/19 A2995 RMK A01
KHSD 201135Z AUTO 31010KT 10SM OVC020 23/21 A2994 RMK A01
KHSD 201115Z AUTO 00000KT 10SM BKN023 BKN031 OVC046 23/21 A2993 RMK A01
KHSD 201055Z AUTO 00000KT 10SM BKN046 OVC055 23/21 A2993 RMK A01
KHSD 201035Z AUTO 00000KT 10SM OVC045 23/21 A2993 RMK A01
KHSD 201015Z AUTO 00000KT 10SM BKN029 OVC045 23/21 A2993 RMK A01
KHSD 200955Z AUTO 28004KT 10SM OVC030 22/20 A2993 RMK A01
KHSD 200935Z AUTO 00000KT 10SM BKN032 OVC042 22/20 A2992 RMK A01
KHSD 200915Z AUTO 00000KT 10SM BKN042 22/20 A2992 RMK A01
KHSD 200855Z AUTO 00000KT 10SM FEW039 23/20 A2992 RMK A01
KHSD 200835Z AUTO 22003KT 10SM CLR 23/20 A2991 RMK A01
KHSD 200815Z AUTO 16005KT 10SM CLR 23/20 A2989 RMK A01
KHSD 200755Z AUTO 16006KT 10SM CLR 24/20 A2989 RMK A01
KHSD 200735Z AUTO 17006KT 10SM CLR 24/20 A2989 RMK A01
KHSD 200715Z AUTO 18006KT 10SM CLR 24/20 A2989 RMK A01
KHSD 200655Z AUTO 17007G12KT 10SM CLR 24/20 A2988 RMK A01
KHSD 200635Z AUTO 18009KT 10SM CLR 24/21 A2988 RMK A01
KHSD 200615Z AUTO 18009KT 10SM CLR 25/21 A2988 RMK A01
KHSD 200555Z AUTO 17010KT 10SM CLR 25/21 A2988 RMK A01
KHSD 200535Z AUTO 17010KT 10SM CLR 25/21 A2990 RMK A01
KHSD 200515Z AUTO 17009KT 10SM CLR 25/21 A2990 RMK A01
KHSD 200455Z AUTO 17009KT 10SM CLR 26/21 A2991 RMK A01
KHSD 200435Z AUTO 17009KT 10SM CLR 26/21 A2990 RMK A01
KHSD 200415Z AUTO 17009KT 10SM CLR 26/21 A2990 RMK A01
KHSD 200355Z AUTO 17008KT 10SM CLR 26/21 A2990 RMK A01
KHSD 200335Z AUTO 16006KT 10SM CLR 26/21 A2990 RMK A01
KHSD 200315Z AUTO 16011KT 10SM CLR 27/21 A2989 RMK A01
KHSD 200255Z AUTO 15010KT 10SM CLR 27/21 A2989 RMK A01
KHSD 200235Z AUTO 16009KT 10SM CLR 27/21 A2989 RMK A01
KHSD 200215Z AUTO 15010G16KT 10SM CLR 27/21 A2988 RMK A01
KHSD 200155Z AUTO 16008KT 10SM CLR 28/21 A2988 RMK A01
KHSD 200135Z AUTO 15010G16KT 10SM FEW033 28/20 A2987 RMK A01
KHSD 200115Z AUTO 16010G16KT 10SM CLR 28/21 A2987 RMK A01
KHSD 200055Z AUTO 15012G19KT 10SM CLR 29/20 A2988 RMK A01
KHSD 200035Z AUTO 16013KT 10SM FEW038 29/20 A2987 RMK A01
KHSD 200015Z AUTO 14015KT 10SM FEW038 30/20 A2988 RMK A01
KHSD 192355Z AUTO 15012G18KT 10SM FEW039 30/20 A2989 RMK A01